createdAt,value
2018-11-27T00:01:56.142Z,30.77
2018-11-27T00:04:26.965Z,28.97
2018-11-27T00:06:57.662Z,29.80
2018-11-27T00:09:28.375Z,28.20
2018-11-27T00:11:59.161Z,29.87
2018-11-27T00:14:29.971Z,30.40
2018-11-27T00:17:00.739Z,29.97
2018-11-27T00:19:31.533Z,28.87
2018-11-27T00:22:02.302Z,28.77
2018-11-27T00:24:33.127Z,28.97
2018-11-27T00:27:03.932Z,31.30
2018-11-27T00:29:34.623Z,31.43
2018-11-27T00:32:05.472Z,30.43
2018-11-27T00:34:36.266Z,29.27
2018-11-27T00:37:07.015Z,28.97
2018-11-27T00:39:37.760Z,27.93
2018-11-27T00:42:08.496Z,28.97
2018-11-27T00:44:39.255Z,28.17
2018-11-27T00:47:09.967Z,29.57
2018-11-27T00:49:40.692Z,31.03
2018-11-27T00:52:11.425Z,29.30
2018-11-27T00:54:42.073Z,29.57
2018-11-27T00:57:12.740Z,28.47
2018-11-27T00:59:43.448Z,31.33
2018-11-27T01:02:14.210Z,28.97
2018-11-27T01:04:44.852Z,32.50
2018-11-27T01:07:15.594Z,30.63
2018-11-27T01:09:46.270Z,30.57
2018-11-27T01:12:16.950Z,31.53
2018-11-27T01:14:47.649Z,27.77
2018-11-27T01:17:18.348Z,30.23
2018-11-27T01:19:49.010Z,29.77
2018-11-27T01:22:19.729Z,30.37
2018-11-27T01:24:50.486Z,28.60
2018-11-27T01:27:21.200Z,29.40
2018-11-27T01:29:51.921Z,30.47
2018-11-27T01:32:22.637Z,31.00
2018-11-27T01:34:53.327Z,27.93
2018-11-27T01:37:24.018Z,31.43
2018-11-27T01:39:54.752Z,28.70
2018-11-27T01:42:25.425Z,30.10
2018-11-27T01:44:56.144Z,31.63
2018-11-27T01:47:26.909Z,29.47
2018-11-27T01:49:57.582Z,27.97
2018-11-27T01:52:28.313Z,30.27
2018-11-27T01:54:59.029Z,30.07
2018-11-27T01:57:29.711Z,29.70
2018-11-27T02:00:00.451Z,27.93
2018-11-27T02:02:31.149Z,28.70
2018-11-27T02:05:01.899Z,31.00
2018-11-27T02:07:32.607Z,34.70
2018-11-27T02:10:03.704Z,30.27
2018-11-27T02:12:34.561Z,30.30
2018-11-27T02:15:07.198Z,31.87
2018-11-27T02:17:37.947Z,30.37
2018-11-27T02:20:11.140Z,28.40
2018-11-27T02:22:42.223Z,32.60
2018-11-27T02:25:29.446Z,32.07
2018-11-27T02:28:00.197Z,30.60
2018-11-27T02:30:30.880Z,31.43
2018-11-27T02:33:01.584Z,29.87
2018-11-27T02:35:32.264Z,29.17
2018-11-27T02:38:03.050Z,31.13
2018-11-27T02:40:33.823Z,34.80
2018-11-27T02:43:04.534Z,30.60
2018-11-27T02:45:35.255Z,32.73
2018-11-27T02:48:07.575Z,30.97
2018-11-27T02:50:38.425Z,27.93
2018-11-27T02:53:09.172Z,32.67
2018-11-27T02:55:39.859Z,30.07
2018-11-27T02:58:10.612Z,31.47
2018-11-27T03:00:41.318Z,32.40
2018-11-27T03:03:12.015Z,32.73
2018-11-27T03:05:42.744Z,31.77
2018-11-27T03:08:13.430Z,31.10
2018-11-27T03:10:44.099Z,30.77
2018-11-27T03:13:14.804Z,33.90
2018-11-27T03:15:45.530Z,33.63
2018-11-27T03:18:16.206Z,29.40
2018-11-27T03:20:46.864Z,30.40
2018-11-27T03:23:17.627Z,32.00
2018-11-27T03:25:48.319Z,35.50
2018-11-27T03:28:19.074Z,33.10
2018-11-27T03:30:49.736Z,32.73
2018-11-27T03:33:20.430Z,33.20
2018-11-27T03:35:51.170Z,32.00
2018-11-27T03:38:21.851Z,31.10
2018-11-27T03:40:52.538Z,32.70
2018-11-27T03:43:23.297Z,30.87
2018-11-27T03:45:53.954Z,29.50
2018-11-27T03:48:24.666Z,30.50
2018-11-27T03:50:55.358Z,34.00
2018-11-27T03:53:26.053Z,32.43
2018-11-27T03:55:56.815Z,32.90
2018-11-27T03:58:27.567Z,31.77
2018-11-27T04:00:58.289Z,30.67
2018-11-27T04:03:29.011Z,29.73
2018-11-27T04:05:59.710Z,33.87
2018-11-27T04:08:30.400Z,35.27
2018-11-27T04:11:01.153Z,33.43
2018-11-27T04:13:31.841Z,30.50
2018-11-27T04:16:02.642Z,30.67
2018-11-27T04:18:33.312Z,27.60
2018-11-27T04:21:04.012Z,31.47
2018-11-27T04:23:34.790Z,31.87
2018-11-27T04:26:05.644Z,35.50
2018-11-27T04:28:36.449Z,30.83
2018-11-27T04:31:07.216Z,30.70
2018-11-27T04:33:38.005Z,33.07
2018-11-27T04:36:08.724Z,32.97
2018-11-27T04:38:39.570Z,31.93
2018-11-27T04:41:10.245Z,30.40
2018-11-27T04:43:41.022Z,30.63
2018-11-27T04:46:11.725Z,33.00
2018-11-27T04:48:42.564Z,29.63
2018-11-27T04:51:13.250Z,30.37
2018-11-27T04:53:43.981Z,27.57
2018-11-27T04:56:14.664Z,28.83
2018-11-27T04:58:45.412Z,32.47
2018-11-27T05:01:16.084Z,29.17
2018-11-27T05:03:46.826Z,32.73
2018-11-27T05:06:17.531Z,30.47
2018-11-27T05:08:48.227Z,33.73
2018-11-27T05:11:18.891Z,30.33
2018-11-27T05:13:49.626Z,30.43
2018-11-27T05:16:20.272Z,31.77
2018-11-27T05:18:50.990Z,31.23
2018-11-27T05:21:21.661Z,28.00
2018-11-27T05:23:52.371Z,28.27
2018-11-27T05:26:23.025Z,32.37
2018-11-27T05:28:53.740Z,30.17
2018-11-27T05:31:24.494Z,31.50
2018-11-27T05:33:55.221Z,29.93
2018-11-27T05:36:25.965Z,31.63
2018-11-27T05:38:56.626Z,33.83
2018-11-27T05:41:27.326Z,32.63
2018-11-27T05:43:58.951Z,29.67
2018-11-27T05:46:29.645Z,31.23
2018-11-27T05:49:00.364Z,31.13
2018-11-27T05:51:31.086Z,34.27
2018-11-27T05:54:01.805Z,32.90
2018-11-27T05:56:32.512Z,33.17
2018-11-27T05:59:03.189Z,32.97
2018-11-27T06:01:34.939Z,34.17
2018-11-27T06:04:06.121Z,31.73
2018-11-27T06:06:36.884Z,32.90
2018-11-27T06:09:11.099Z,30.27
2018-11-27T06:11:42.295Z,34.07
2018-11-27T06:14:13.086Z,27.97
2018-11-27T06:16:43.930Z,31.60
2018-11-27T06:19:14.614Z,31.93
2018-11-27T06:21:45.333Z,30.90
2018-11-27T06:24:16.018Z,27.90
2018-11-27T06:26:46.861Z,31.33
2018-11-27T06:29:18.683Z,31.37
2018-11-27T06:31:48.416Z,30.93
2018-11-27T06:34:19.151Z,31.17
2018-11-27T06:36:50.003Z,32.00
2018-11-27T06:39:20.663Z,31.00
2018-11-27T06:41:51.450Z,31.23
2018-11-27T06:44:22.094Z,31.07
2018-11-27T06:46:52.888Z,31.30
2018-11-27T06:49:23.553Z,30.80
2018-11-27T06:51:57.119Z,34.50
2018-11-27T06:54:27.935Z,31.63
2018-11-27T06:56:58.685Z,32.87
2018-11-27T06:59:29.360Z,33.47
2018-11-27T07:02:00.090Z,30.63
2018-11-27T07:04:30.781Z,30.17
2018-11-27T07:07:01.528Z,30.97
2018-11-27T07:09:32.289Z,31.10
2018-11-27T07:12:03.097Z,29.27
2018-11-27T07:14:33.813Z,26.53
2018-11-27T07:17:04.518Z,30.40
2018-11-27T07:19:35.279Z,29.20
2018-11-27T07:22:06.296Z,28.53
2018-11-27T07:24:37.006Z,27.43
2018-11-27T07:27:07.738Z,27.33
2018-11-27T07:29:38.446Z,30.17
2018-11-27T07:32:09.540Z,26.33
2018-11-27T07:34:39.947Z,29.83
2018-11-27T07:37:10.623Z,32.70
2018-11-27T07:39:41.304Z,25.33
2018-11-27T07:42:11.991Z,29.60
2018-11-27T07:44:42.691Z,29.03
2018-11-27T07:47:13.315Z,26.77
2018-11-27T07:49:44.036Z,28.77
2018-11-27T07:52:14.688Z,27.30
2018-11-27T07:54:45.429Z,26.87
2018-11-27T07:57:16.178Z,27.50
2018-11-27T07:59:46.931Z,27.40
2018-11-27T08:02:17.610Z,27.67
2018-11-27T08:04:48.428Z,26.83
2018-11-27T08:07:19.594Z,27.23
2018-11-27T08:09:50.390Z,28.60
2018-11-27T08:12:21.146Z,27.57
2018-11-27T08:14:51.883Z,25.80
2018-11-27T08:17:22.625Z,26.13
2018-11-27T08:19:53.313Z,28.33
2018-11-27T08:22:23.988Z,27.13
2018-11-27T08:24:54.726Z,27.47
2018-11-27T08:27:25.503Z,27.93
2018-11-27T08:29:56.196Z,27.70
2018-11-27T08:32:26.849Z,26.63
2018-11-27T08:34:57.571Z,26.87
2018-11-27T08:37:28.280Z,27.10
2018-11-27T08:39:58.910Z,25.63
2018-11-27T08:42:29.576Z,24.83
2018-11-27T08:45:00.270Z,27.93
2018-11-27T08:47:30.992Z,26.77
2018-11-27T08:50:01.773Z,28.60
2018-11-27T08:52:32.541Z,26.40
2018-11-27T08:55:03.260Z,27.73
2018-11-27T08:57:34.000Z,29.57
2018-11-27T09:00:09.709Z,25.87
2018-11-27T09:02:40.424Z,26.17
2018-11-27T09:05:12.075Z,29.00
2018-11-27T09:07:43.414Z,26.13
2018-11-27T09:10:19.960Z,27.70
2018-11-27T09:12:50.807Z,27.57
2018-11-27T09:15:23.081Z,26.70
2018-11-27T09:18:05.830Z,26.90
2018-11-27T09:20:38.171Z,26.40
2018-11-27T09:23:08.926Z,31.03
2018-11-27T09:25:39.694Z,28.27
2018-11-27T09:28:10.439Z,29.73
2018-11-27T09:30:41.224Z,26.93
2018-11-27T09:33:12.326Z,28.93
2018-11-27T09:35:43.171Z,24.10
2018-11-27T09:38:14.134Z,25.67
2018-11-27T09:40:45.034Z,26.43
2018-11-27T09:43:15.702Z,34.93
2018-11-27T09:45:47.814Z,26.60
2018-11-27T09:48:18.487Z,26.63
2018-11-27T09:50:49.285Z,26.70
2018-11-27T09:53:20.090Z,26.13
2018-11-27T09:55:50.910Z,25.97
2018-11-27T09:58:21.737Z,27.07
2018-11-27T10:00:52.511Z,26.20
2018-11-27T10:03:23.169Z,27.87
2018-11-27T10:05:53.902Z,26.60
2018-11-27T10:08:24.561Z,27.73
2018-11-27T10:10:55.265Z,25.70
2018-11-27T10:13:25.972Z,23.83
2018-11-27T10:15:56.633Z,25.20
2018-11-27T10:18:27.327Z,23.80
2018-11-27T10:20:57.989Z,24.33
2018-11-27T10:23:28.612Z,26.00
2018-11-27T10:25:59.340Z,28.30
2018-11-27T10:28:32.158Z,24.30
2018-11-27T10:31:00.785Z,24.17
2018-11-27T10:33:31.444Z,24.87
2018-11-27T10:36:02.282Z,25.23
2018-11-27T10:38:32.957Z,25.33
2018-11-27T10:41:04.798Z,27.23
2018-11-27T10:43:35.540Z,27.07
2018-11-27T10:46:06.514Z,25.77
2018-11-27T10:48:37.287Z,22.97
2018-11-27T10:51:08.048Z,25.57
2018-11-27T10:53:38.788Z,26.00
2018-11-27T10:56:09.532Z,21.83
2018-11-27T10:58:40.205Z,22.43
2018-11-27T11:01:15.985Z,22.70
2018-11-27T11:03:46.675Z,23.83
2018-11-27T11:06:17.386Z,23.60
2018-11-27T11:08:48.111Z,25.87
2018-11-27T11:11:18.841Z,22.10
2018-11-27T11:13:49.552Z,22.57
2018-11-27T11:16:20.242Z,23.87
2018-11-27T11:18:51.044Z,26.33
2018-11-27T11:21:21.791Z,25.13
2018-11-27T11:23:52.528Z,23.03
2018-11-27T11:26:23.315Z,25.30
2018-11-27T11:28:54.150Z,26.23
2018-11-27T11:31:24.823Z,25.90
2018-11-27T11:33:55.579Z,24.70
2018-11-27T11:36:26.251Z,24.97
2018-11-27T11:38:56.945Z,23.80
2018-11-27T11:41:31.265Z,24.97
2018-11-27T11:43:58.514Z,26.27
2018-11-27T11:46:29.332Z,24.73
2018-11-27T11:49:01.989Z,26.23
2018-11-27T11:51:30.824Z,23.37
2018-11-27T11:54:01.549Z,26.47
2018-11-27T11:56:32.295Z,20.40
2018-11-27T11:59:02.928Z,20.77
2018-11-27T12:01:33.615Z,23.10
2018-11-27T12:04:04.410Z,18.70
2018-11-27T12:06:35.164Z,18.50
2018-11-27T12:09:08.788Z,17.90
2018-11-27T12:11:39.530Z,18.10
2018-11-27T12:14:10.283Z,19.77
2018-11-27T12:16:40.993Z,17.90
2018-11-27T12:19:11.770Z,19.17
2018-11-27T12:21:42.514Z,19.60
2018-11-27T12:24:13.193Z,16.17
2018-11-27T12:26:43.810Z,18.63
2018-11-27T12:29:14.538Z,17.83
2018-11-27T12:31:45.268Z,19.10
2018-11-27T12:34:16.022Z,18.07
2018-11-27T12:36:46.720Z,19.03
2018-11-27T12:39:17.498Z,19.97
2018-11-27T12:41:48.294Z,19.13
2018-11-27T12:44:19.111Z,18.77
2018-11-27T12:46:49.861Z,18.23
2018-11-27T12:49:20.627Z,16.80
2018-11-27T12:51:51.353Z,19.03
2018-11-27T12:54:22.106Z,17.27
2018-11-27T12:56:52.845Z,14.70
2018-11-27T12:59:23.494Z,17.80
2018-11-27T13:01:54.209Z,20.23
2018-11-27T13:04:24.989Z,15.97
2018-11-27T13:06:55.723Z,15.00
2018-11-27T13:09:26.431Z,18.67
2018-11-27T13:11:57.325Z,19.37
2018-11-27T13:14:28.054Z,18.23
2018-11-27T13:16:58.849Z,18.07
2018-11-27T13:19:29.489Z,15.97
2018-11-27T13:22:00.279Z,18.37
2018-11-27T13:24:30.986Z,17.90
2018-11-27T13:27:01.793Z,16.93
2018-11-27T13:29:32.548Z,16.87
2018-11-27T13:32:03.247Z,16.27
2018-11-27T13:34:33.969Z,17.50
2018-11-27T13:37:04.831Z,14.17
2018-11-27T13:39:38.146Z,15.37
2018-11-27T13:42:09.520Z,14.43
2018-11-27T13:44:40.258Z,14.17
2018-11-27T13:47:10.948Z,13.47
2018-11-27T13:49:41.636Z,14.53
2018-11-27T13:52:12.308Z,15.03
2018-11-27T13:54:43.029Z,16.03
2018-11-27T13:57:13.737Z,15.77
2018-11-27T13:59:44.459Z,16.63
2018-11-27T14:02:15.402Z,14.13
2018-11-27T14:04:46.099Z,13.67
2018-11-27T14:07:16.866Z,15.03
2018-11-27T14:09:47.662Z,15.97
2018-11-27T14:12:18.387Z,16.37
2018-11-27T14:14:49.106Z,17.10
2018-11-27T14:17:19.873Z,17.63
2018-11-27T14:19:50.546Z,15.53
2018-11-27T14:22:25.099Z,13.93
2018-11-27T14:24:52.026Z,16.70
2018-11-27T14:27:22.841Z,13.70
2018-11-27T14:29:53.564Z,15.80
2018-11-27T14:32:24.378Z,15.93
2018-11-27T14:34:59.911Z,16.03
2018-11-27T14:37:25.942Z,14.57
2018-11-27T14:39:56.668Z,13.20
2018-11-27T14:42:27.366Z,12.60
2018-11-27T14:44:58.173Z,12.60
2018-11-27T14:47:28.881Z,14.03
2018-11-27T14:50:04.076Z,16.00
2018-11-27T14:52:30.304Z,13.07
2018-11-27T14:55:01.118Z,12.83
2018-11-27T14:57:31.807Z,11.80
2018-11-27T15:00:02.582Z,13.33
2018-11-27T15:02:33.274Z,11.63
2018-11-27T15:05:04.175Z,12.77
2018-11-27T15:07:34.915Z,11.70
2018-11-27T15:10:08.187Z,11.93
2018-11-27T15:12:39.088Z,10.20
2018-11-27T15:15:13.026Z,10.20
2018-11-27T15:17:43.810Z,9.77
2018-11-27T15:20:19.351Z,10.73
2018-11-27T15:22:50.036Z,10.87
2018-11-27T15:25:20.861Z,11.90
2018-11-27T15:27:51.604Z,12.00
2018-11-27T15:30:27.197Z,11.33
2018-11-27T15:33:00.446Z,13.30
2018-11-27T15:35:31.135Z,12.07
2018-11-27T15:38:01.856Z,11.43
2018-11-27T15:40:32.583Z,12.33
2018-11-27T15:43:03.384Z,11.00
2018-11-27T15:45:35.495Z,11.10
2018-11-27T15:48:09.509Z,13.97
2018-11-27T15:50:40.287Z,10.93
2018-11-27T15:53:11.114Z,12.17
2018-11-27T15:55:41.946Z,12.80
2018-11-27T15:58:14.981Z,12.13
2018-11-27T16:00:45.881Z,11.93
2018-11-27T16:03:16.563Z,11.30
2018-11-27T16:05:47.301Z,11.00
2018-11-27T16:08:17.994Z,12.27
2018-11-27T16:10:48.700Z,12.57
2018-11-27T16:13:19.434Z,12.70
2018-11-27T16:15:50.131Z,13.00
2018-11-27T16:18:20.886Z,11.23
2018-11-27T16:20:51.561Z,10.33
2018-11-27T16:23:22.321Z,12.33
2018-11-27T16:25:53.186Z,11.77
2018-11-27T16:28:23.943Z,11.40
2018-11-27T16:30:54.654Z,11.53
2018-11-27T16:33:25.450Z,11.43
2018-11-27T16:35:56.138Z,11.37
2018-11-27T16:38:26.839Z,10.20
2018-11-27T16:40:57.600Z,10.73
2018-11-27T16:43:28.341Z,10.87
2018-11-27T16:45:59.038Z,11.63
2018-11-27T16:48:29.733Z,11.13
2018-11-27T16:51:00.549Z,13.07
2018-11-27T16:53:31.181Z,12.00
2018-11-27T16:56:03.132Z,13.37
2018-11-27T16:58:32.869Z,13.13
2018-11-27T17:01:08.979Z,11.43
2018-11-27T17:03:34.274Z,11.77
2018-11-27T17:06:04.997Z,11.50
2018-11-27T17:08:35.715Z,11.60
2018-11-27T17:11:06.560Z,13.20
2018-11-27T17:13:37.261Z,11.77
2018-11-27T17:16:08.020Z,12.90
2018-11-27T17:18:38.686Z,10.53
2018-11-27T17:21:09.374Z,11.53
2018-11-27T17:23:40.049Z,12.40
2018-11-27T17:26:10.875Z,11.73
2018-11-27T17:28:41.502Z,10.50
2018-11-27T17:31:14.369Z,11.37
2018-11-27T17:34:03.596Z,11.30
2018-11-27T17:36:34.317Z,12.27
2018-11-27T17:39:07.933Z,12.23
2018-11-27T17:41:38.707Z,11.17
2018-11-27T17:44:12.592Z,12.93
2018-11-27T17:46:43.355Z,11.33
2018-11-27T17:49:14.058Z,13.00
2018-11-27T17:51:44.730Z,11.70
2018-11-27T17:54:15.416Z,14.07
2018-11-27T17:56:46.127Z,14.00
2018-11-27T17:59:16.806Z,13.10
2018-11-27T18:01:47.497Z,12.17
2018-11-27T18:04:18.273Z,12.60
2018-11-27T18:06:48.949Z,11.80
2018-11-27T18:09:19.630Z,12.97
2018-11-27T18:11:50.362Z,12.43
2018-11-27T18:14:21.069Z,12.10
2018-11-27T18:16:52.126Z,12.83
2018-11-27T18:19:22.806Z,11.57
2018-11-27T18:21:53.529Z,13.13
2018-11-27T18:24:24.215Z,11.80
2018-11-27T18:26:54.915Z,12.73
2018-11-27T18:29:25.560Z,13.37
2018-11-27T18:31:56.431Z,13.80
2018-11-27T18:34:27.086Z,16.30
2018-11-27T18:36:57.786Z,14.87
2018-11-27T18:39:28.465Z,13.33
2018-11-27T18:41:59.055Z,14.53
2018-11-27T18:44:29.735Z,11.93
2018-11-27T18:47:00.389Z,14.30
2018-11-27T18:49:31.129Z,13.93
2018-11-27T18:52:01.813Z,14.17
2018-11-27T18:54:32.543Z,12.17
2018-11-27T18:59:48.250Z,13.20
2018-11-27T19:02:18.966Z,12.47
2018-11-27T19:04:49.690Z,13.13
2018-11-27T19:07:20.390Z,15.23
2018-11-27T19:09:51.134Z,14.90
2018-11-27T19:12:22.043Z,14.30
2018-11-27T19:14:52.792Z,16.43
2018-11-27T19:17:23.426Z,14.00
2018-11-27T19:19:54.114Z,14.10
2018-11-27T19:22:24.776Z,16.83
2018-11-27T19:24:55.490Z,15.10
2018-11-27T19:27:26.215Z,17.27
2018-11-27T19:29:56.903Z,16.83
2018-11-27T19:32:27.603Z,14.07
2018-11-27T19:34:58.494Z,15.97
2018-11-27T19:37:29.316Z,16.90
2018-11-27T19:40:00.008Z,14.63
2018-11-27T19:42:30.671Z,16.73
2018-11-27T19:45:01.475Z,16.00
2018-11-27T19:47:32.202Z,15.43
2018-11-27T19:50:03.055Z,15.83
2018-11-27T19:52:33.750Z,16.97
2018-11-27T19:55:04.614Z,17.50
2018-11-27T19:57:35.315Z,15.80
2018-11-27T20:00:17.539Z,16.10
2018-11-27T20:02:48.346Z,17.87
2018-11-27T20:05:23.877Z,14.97
2018-11-27T20:07:54.726Z,18.97
2018-11-27T20:10:25.479Z,16.47
2018-11-27T20:12:56.133Z,16.13
2018-11-27T20:15:28.447Z,16.53
2018-11-27T20:17:59.419Z,19.27
2018-11-27T20:20:30.226Z,18.43
2018-11-27T20:23:01.015Z,17.07
2018-11-27T20:25:31.701Z,18.50
2018-11-27T20:28:02.563Z,16.90
2018-11-27T20:30:33.281Z,16.73
2018-11-27T20:33:04.839Z,19.10
2018-11-27T20:35:35.685Z,17.07
2018-11-27T20:38:09.523Z,16.23
2018-11-27T20:40:41.206Z,17.80
2018-11-27T20:43:12.216Z,19.03
2018-11-27T20:45:42.895Z,18.07
2018-11-27T20:48:18.751Z,17.97
2018-11-27T20:50:51.978Z,17.33
2018-11-27T20:53:22.734Z,16.17
2018-11-27T20:55:53.491Z,15.17
2018-11-27T20:58:24.286Z,14.10
2018-11-27T21:00:55.465Z,16.93
2018-11-27T21:03:26.186Z,18.80
2018-11-27T21:05:56.925Z,17.03
2018-11-27T21:08:27.634Z,17.20
2018-11-27T21:10:58.350Z,18.93
2018-11-27T21:13:28.992Z,18.57
2018-11-27T21:16:30.809Z,19.83
2018-11-27T21:19:01.509Z,17.60
2018-11-27T21:21:32.206Z,21.10
2018-11-27T21:24:02.976Z,20.73
2018-11-27T21:26:33.625Z,17.67
2018-11-27T21:29:04.359Z,19.97
2018-11-27T21:31:35.071Z,22.63
2018-11-27T21:34:05.892Z,18.97
2018-11-27T21:36:36.643Z,20.30
2018-11-27T21:39:09.796Z,17.90
2018-11-27T21:41:40.510Z,19.10
2018-11-27T21:44:11.219Z,18.03
2018-11-27T21:46:41.861Z,18.43
2018-11-27T21:49:12.622Z,20.67
2018-11-27T21:51:43.238Z,21.67
2018-11-27T21:54:13.900Z,24.43
2018-11-27T21:56:44.575Z,21.47
2018-11-27T21:59:15.285Z,20.53
2018-11-27T22:01:45.973Z,20.40
2018-11-27T22:04:16.629Z,22.63
2018-11-27T22:06:47.312Z,20.27
2018-11-27T22:09:18.064Z,21.20
2018-11-27T22:11:48.707Z,20.03
2018-11-27T22:14:19.348Z,20.93
2018-11-27T22:16:50.058Z,22.47
2018-11-27T22:19:20.753Z,22.13
2018-11-27T22:21:51.480Z,20.27
2018-11-27T22:24:22.200Z,20.63
2018-11-27T22:26:52.839Z,20.27
2018-11-27T22:29:23.503Z,21.13
2018-11-27T22:31:54.190Z,19.77
2018-11-27T22:34:24.884Z,23.77
2018-11-27T22:36:55.584Z,20.43
2018-11-27T22:39:26.244Z,20.07
2018-11-27T22:41:56.867Z,19.93
2018-11-27T22:44:27.554Z,18.90
2018-11-27T22:46:58.245Z,18.10
2018-11-27T22:49:28.886Z,20.30
2018-11-27T22:51:59.530Z,21.33
2018-11-27T22:54:30.210Z,22.17
2018-11-27T22:57:00.878Z,18.80
2018-11-27T22:59:31.554Z,21.90
2018-11-27T23:02:02.233Z,18.43
2018-11-27T23:04:32.908Z,20.50
2018-11-27T23:07:03.560Z,20.23
2018-11-27T23:09:34.263Z,20.93
2018-11-27T23:12:05.130Z,18.13
2018-11-27T23:14:35.822Z,20.70
2018-11-27T23:17:06.622Z,18.40
2018-11-27T23:19:37.414Z,20.93
2018-11-27T23:22:08.139Z,20.20
2018-11-27T23:24:38.943Z,20.57
2018-11-27T23:27:09.644Z,22.53
2018-11-27T23:29:40.618Z,20.00
2018-11-27T23:32:11.284Z,19.13
2018-11-27T23:34:41.951Z,20.17
2018-11-27T23:37:12.671Z,18.83
2018-11-27T23:39:43.381Z,18.00
2018-11-27T23:42:14.077Z,18.33
2018-11-27T23:44:44.733Z,17.97
2018-11-27T23:47:15.474Z,19.53
2018-11-27T23:49:46.144Z,20.57
2018-11-27T23:52:16.894Z,18.97
2018-11-27T23:54:47.576Z,17.30
2018-11-27T23:57:18.211Z,17.70
2018-11-27T23:59:48.889Z,23.17
